createdAt,value
2023-02-13T00:01:29.415Z,103637.03
2023-02-13T00:03:01.741Z,103641.34
2023-02-13T00:04:34.809Z,103635.16
2023-02-13T00:06:07.060Z,103635.91
2023-02-13T00:07:39.095Z,103628.09
2023-02-13T00:09:11.495Z,103630.63
2023-02-13T00:10:43.531Z,103635.84
2023-02-13T00:12:15.594Z,103637.47
2023-02-13T00:13:47.751Z,103635.69
2023-02-13T00:15:19.730Z,103628.75
2023-02-13T00:16:51.748Z,103621.75
2023-02-13T00:18:23.848Z,103620.78
2023-02-13T00:19:56.104Z,103621.69
2023-02-13T00:21:28.120Z,103621.63
2023-02-13T00:23:00.396Z,103614.53
2023-02-13T00:24:32.450Z,103612.69
2023-02-13T00:26:10.244Z,103610.00
2023-02-13T00:27:43.156Z,103607.41
2023-02-13T00:29:15.174Z,103607.41
2023-02-13T00:30:47.551Z,103618.63
2023-02-13T00:32:19.685Z,103610.66
2023-02-13T00:33:51.904Z,103608.88
2023-02-13T00:35:24.059Z,103608.88
2023-02-13T00:36:58.023Z,103615.63
2023-02-13T00:38:30.992Z,103606.84
2023-02-13T00:40:03.002Z,103616.47
2023-02-13T00:41:35.287Z,103617.00
2023-02-13T00:43:07.311Z,103615.22
2023-02-13T00:44:41.497Z,103609.84
2023-02-13T00:46:14.090Z,103606.38
2023-02-13T00:47:46.316Z,103604.50
2023-02-13T00:49:18.719Z,103609.69
2023-02-13T00:50:52.766Z,103600.19
2023-02-13T00:52:24.836Z,103603.59
2023-02-13T00:53:56.985Z,103610.44
2023-02-13T00:55:29.204Z,103608.72
2023-02-13T00:57:01.370Z,103604.41
2023-02-13T00:58:33.778Z,103607.75
2023-02-13T01:00:07.428Z,103604.09
2023-02-13T01:01:39.575Z,103609.22
2023-02-13T01:03:11.852Z,103612.66
2023-02-13T01:04:44.089Z,103611.03
2023-02-13T01:06:16.226Z,103603.13
2023-02-13T01:07:48.308Z,103603.88
2023-02-13T01:09:20.514Z,103602.00
2023-02-13T01:10:57.414Z,103604.44
2023-02-13T01:12:29.852Z,103594.84
2023-02-13T01:14:02.095Z,103602.66
2023-02-13T01:15:34.585Z,103604.38
2023-02-13T01:17:06.927Z,103606.00
2023-02-13T01:18:39.731Z,103605.03
2023-02-13T01:20:13.378Z,103607.56
2023-02-13T01:21:45.458Z,103616.25
2023-02-13T01:23:17.676Z,103605.03
2023-02-13T01:24:50.138Z,103598.78
2023-02-13T01:26:37.645Z,103599.50
2023-02-13T01:28:10.156Z,103601.22
2023-02-13T01:29:44.627Z,103599.34
2023-02-13T01:31:17.014Z,103594.97
2023-02-13T01:32:52.405Z,103596.59
2023-02-13T01:34:24.887Z,103602.44
2023-02-13T01:35:57.047Z,103595.47
2023-02-13T01:37:29.228Z,103601.19
2023-02-13T01:39:03.788Z,103605.50
2023-02-13T01:40:36.680Z,103600.16
2023-02-13T01:42:38.081Z,103604.28
2023-02-13T01:44:47.862Z,103609.25
2023-02-13T01:46:37.704Z,103616.06
2023-02-13T01:48:12.558Z,103608.91
2023-02-13T01:49:46.634Z,103607.78
2023-02-13T01:51:25.687Z,103605.84
2023-02-13T01:53:15.056Z,103602.09
2023-02-13T01:54:47.331Z,103599.97
2023-02-13T01:56:47.246Z,103605.16
2023-02-13T01:58:21.780Z,103601.19
2023-02-13T01:59:59.175Z,103600.16
2023-02-13T02:01:33.050Z,103604.38
2023-02-13T02:03:16.241Z,103603.41
2023-02-13T02:04:48.721Z,103603.97
2023-02-13T02:06:27.656Z,103606.56
2023-02-13T02:08:00.813Z,103601.19
2023-02-13T02:09:34.992Z,103605.41
2023-02-13T02:11:28.298Z,103599.06
2023-02-13T02:13:20.992Z,103608.66
2023-02-13T02:14:54.886Z,103602.47
2023-02-13T02:16:28.873Z,103607.41
2023-02-13T02:18:01.154Z,103609.69
2023-02-13T02:19:44.738Z,103609.75
2023-02-13T02:21:45.981Z,103604.41
2023-02-13T02:23:41.202Z,103604.22
2023-02-13T02:25:54.764Z,103597.16
2023-02-13T02:27:47.216Z,103593.50
2023-02-13T02:29:43.586Z,103601.75
2023-02-13T02:31:19.581Z,103593.75
2023-02-13T02:32:54.417Z,103592.25
2023-02-13T02:34:46.558Z,103591.53
2023-02-13T02:36:29.624Z,103590.38
2023-02-13T02:38:26.795Z,103585.97
2023-02-13T02:40:12.879Z,103583.84
2023-02-13T02:42:27.038Z,103582.06
2023-02-13T02:44:29.107Z,103584.31
2023-02-13T02:46:09.254Z,103584.13
2023-02-13T02:48:02.661Z,103586.72
2023-02-13T02:49:54.890Z,103583.31
2023-02-13T02:51:37.619Z,103582.84
2023-02-13T02:53:29.055Z,103583.66
2023-02-13T02:55:07.988Z,103589.47
2023-02-13T02:56:53.168Z,103587.69
2023-02-13T02:58:57.444Z,103586.78
2023-02-13T03:00:51.665Z,103585.41
2023-02-13T03:02:42.479Z,103592.59
2023-02-13T03:04:48.037Z,103588.00
2023-02-13T03:06:46.392Z,103594.16
2023-02-13T03:08:41.510Z,103593.09
2023-02-13T03:10:41.158Z,103584.16
2023-02-13T03:12:33.562Z,103593.53
2023-02-13T03:14:07.753Z,103587.19
2023-02-13T03:16:01.311Z,103595.94
2023-02-13T03:17:52.052Z,103591.56
2023-02-13T03:20:04.692Z,103587.19
2023-02-13T03:22:10.747Z,103590.41
2023-02-13T03:23:56.699Z,103587.63
2023-02-13T03:25:34.674Z,103593.53
2023-02-13T03:27:48.632Z,103590.75
2023-02-13T03:29:45.136Z,103589.50
2023-02-13T03:31:32.490Z,103586.28
2023-02-13T03:33:10.591Z,103591.13
2023-02-13T03:35:07.275Z,103588.53
2023-02-13T03:37:11.274Z,103579.75
2023-02-13T03:39:06.898Z,103584.94
2023-02-13T03:41:16.236Z,103587.25
2023-02-13T03:43:15.811Z,103587.88
2023-02-13T03:47:04.682Z,103586.81
2023-02-13T03:48:58.180Z,103581.34
2023-02-13T03:50:30.255Z,103584.75
2023-02-13T03:52:12.941Z,103592.69
2023-02-13T03:53:47.371Z,103594.50
2023-02-13T03:55:59.415Z,103594.50
2023-02-13T03:57:52.802Z,103593.59
2023-02-13T03:59:29.394Z,103597.97
2023-02-13T04:01:03.096Z,103598.06
2023-02-13T04:02:43.179Z,103593.69
2023-02-13T04:04:41.574Z,103611.84
2023-02-13T04:06:16.811Z,103600.91
2023-02-13T04:07:49.309Z,103600.72
2023-02-13T04:09:21.328Z,103608.59
2023-02-13T04:10:58.463Z,103612.69
2023-02-13T04:12:37.061Z,103607.50
2023-02-13T04:14:16.156Z,103609.09
2023-02-13T04:15:56.888Z,103608.91
2023-02-13T04:17:34.730Z,103610.50
2023-02-13T04:19:08.278Z,103615.69
2023-02-13T04:20:40.446Z,103607.81
2023-02-13T04:22:12.637Z,103615.50
2023-02-13T04:23:44.593Z,103615.50
2023-02-13T04:25:18.052Z,103614.59
2023-02-13T04:26:53.410Z,103610.03
2023-02-13T04:28:25.644Z,103616.00
2023-02-13T04:29:57.754Z,103613.22
2023-02-13T04:31:30.047Z,103610.53
2023-02-13T04:33:02.275Z,103609.66
2023-02-13T04:34:34.811Z,103613.84
2023-02-13T04:36:09.828Z,103616.34
2023-02-13T04:37:44.282Z,103610.06
2023-02-13T04:39:16.320Z,103613.75
2023-02-13T04:40:48.351Z,103610.34
2023-02-13T04:42:20.410Z,103609.56
2023-02-13T04:43:52.816Z,103603.47
2023-02-13T04:45:24.823Z,103614.66
2023-02-13T04:46:56.858Z,103606.78
2023-02-13T04:48:28.945Z,103606.50
2023-02-13T04:50:00.937Z,103605.59
2023-02-13T04:51:32.955Z,103602.91
2023-02-13T04:53:05.216Z,103593.16
2023-02-13T04:54:37.171Z,103591.28
2023-02-13T04:56:09.225Z,103598.25
2023-02-13T04:57:41.269Z,103597.25
2023-02-13T04:59:13.370Z,103598.16
2023-02-13T05:00:45.423Z,103588.59
2023-02-13T05:02:17.481Z,103592.97
2023-02-13T05:03:49.596Z,103591.97
2023-02-13T05:05:22.013Z,103580.09
2023-02-13T05:06:54.027Z,103588.69
2023-02-13T05:08:25.997Z,103592.88
2023-02-13T05:10:01.422Z,103589.38
2023-02-13T05:11:33.524Z,103589.47
2023-02-13T05:13:05.570Z,103586.28
2023-02-13T05:14:37.590Z,103589.25
2023-02-13T05:16:09.664Z,103588.13
2023-02-13T05:17:44.619Z,103580.63
2023-02-13T05:19:17.139Z,103579.91
2023-02-13T05:21:09.154Z,103587.97
2023-02-13T05:23:05.934Z,103578.78
2023-02-13T05:24:38.143Z,103586.78
2023-02-13T05:26:10.257Z,103582.66
2023-02-13T05:27:42.258Z,103580.16
2023-02-13T05:29:20.581Z,103584.81
2023-02-13T05:30:53.053Z,103580.72
2023-02-13T05:32:25.117Z,103588.78
2023-02-13T05:33:57.178Z,103591.47
2023-02-13T05:35:29.144Z,103586.38
2023-02-13T05:37:01.219Z,103587.44
2023-02-13T05:38:33.477Z,103584.84
2023-02-13T05:40:06.521Z,103582.25
2023-02-13T05:41:38.526Z,103583.25
2023-02-13T05:43:13.207Z,103587.09
2023-02-13T05:44:57.459Z,103580.28
2023-02-13T05:46:29.677Z,103588.16
2023-02-13T05:48:01.763Z,103589.06
2023-02-13T05:49:33.772Z,103587.47
2023-02-13T05:51:05.940Z,103579.84
2023-02-13T05:52:37.865Z,103584.31
2023-02-13T05:54:09.939Z,103581.03
2023-02-13T05:55:41.925Z,103587.91
2023-02-13T05:57:13.931Z,103582.63
2023-02-13T05:58:46.072Z,103576.63
2023-02-13T06:00:18.581Z,103580.94
2023-02-13T06:01:52.846Z,103584.41
2023-02-13T06:03:29.186Z,103576.72
2023-02-13T06:05:01.299Z,103578.44
2023-02-13T06:06:33.288Z,103578.44
2023-02-13T06:08:05.427Z,103577.53
2023-02-13T06:09:37.363Z,103573.94
2023-02-13T06:11:09.881Z,103576.72
2023-02-13T06:12:43.473Z,103570.06
2023-02-13T06:14:15.841Z,103564.94
2023-02-13T06:15:48.354Z,103562.34
2023-02-13T06:17:20.462Z,103577.03
2023-02-13T06:18:52.520Z,103566.66
2023-02-13T06:20:24.860Z,103569.25
2023-02-13T06:21:57.026Z,103570.94
2023-02-13T06:23:29.606Z,103569.16
2023-02-13T06:25:05.405Z,103570.66
2023-02-13T06:26:38.812Z,103574.03
2023-02-13T06:28:11.423Z,103572.97
2023-02-13T06:29:46.710Z,103572.88
2023-02-13T06:31:19.111Z,103566.63
2023-02-13T06:32:53.922Z,103574.31
2023-02-13T06:34:26.210Z,103571.63
2023-02-13T06:35:58.433Z,103570.53
2023-02-13T06:37:33.757Z,103573.84
2023-02-13T06:39:06.179Z,103573.59
2023-02-13T06:40:38.493Z,103573.59
2023-02-13T06:42:11.088Z,103577.88
2023-02-13T06:43:46.185Z,103573.59
2023-02-13T06:45:25.561Z,103576.09
2023-02-13T06:46:59.986Z,103575.00
2023-02-13T06:48:32.295Z,103571.34
2023-02-13T06:50:04.613Z,103569.47
2023-02-13T06:51:41.940Z,103567.66
2023-02-13T06:54:28.742Z,103576.34
2023-02-13T06:56:33.429Z,103574.72
2023-02-13T06:58:51.948Z,103570.34
2023-02-13T10:50:05.745Z,103597.28
2023-02-13T10:52:38.002Z,103593.91
2023-02-13T10:55:04.614Z,103595.94
2023-02-13T10:57:18.127Z,103587.94
2023-02-13T10:58:59.293Z,103594.63
2023-02-13T11:01:43.598Z,103593.72
2023-02-13T11:03:33.848Z,103587.69
2023-02-13T11:06:00.043Z,103585.59
2023-02-13T11:07:45.900Z,103583.16
2023-02-13T12:40:42.866Z,103478.28
2023-02-13T12:43:55.924Z,103479.97
2023-02-13T16:21:49.003Z,103372.06
2023-02-13T16:45:49.793Z,103368.31
2023-02-13T20:32:23.808Z,103382.50
2023-02-13T20:33:57.771Z,103380.56
2023-02-13T20:35:29.951Z,103379.59
2023-02-13T20:37:02.148Z,103392.47
2023-02-13T20:38:34.421Z,103388.59
2023-02-13T20:40:07.150Z,103392.22
2023-02-13T20:41:40.195Z,103389.63
2023-02-13T20:43:12.382Z,103394.75
2023-02-13T20:44:44.454Z,103391.19
2023-02-13T20:46:16.882Z,103399.75
2023-02-13T20:47:49.128Z,103404.13
2023-02-13T20:49:22.199Z,103393.59
2023-02-13T20:50:59.725Z,103399.53
2023-02-13T20:52:32.032Z,103400.34
2023-02-13T20:54:27.828Z,103396.84
2023-02-13T20:56:12.506Z,103401.78
2023-02-13T20:57:44.854Z,103404.38
2023-02-13T20:59:17.032Z,103399.91
2023-02-13T21:00:49.477Z,103400.72
2023-02-13T21:02:21.759Z,103397.03
2023-02-13T21:03:55.558Z,103396.06
2023-02-13T21:05:27.957Z,103400.28
2023-02-13T21:07:00.724Z,103395.84
2023-02-13T21:08:32.973Z,103397.53
2023-02-13T21:10:06.714Z,103401.78
2023-02-13T21:11:41.600Z,103404.22
2023-02-13T21:13:14.060Z,103407.66
2023-02-13T21:14:48.749Z,103404.16
2023-02-13T21:16:23.913Z,103402.97
2023-02-13T21:18:02.019Z,103406.53
2023-02-13T21:19:34.959Z,103411.59
2023-02-13T21:21:11.123Z,103405.31
2023-02-13T21:22:48.409Z,103404.34
2023-02-13T21:24:23.052Z,103403.38
2023-02-13T21:25:56.132Z,103398.16
2023-02-13T21:27:30.743Z,103399.06
2023-02-13T21:29:06.704Z,103394.59
2023-02-13T21:30:39.138Z,103395.34
2023-02-13T21:32:11.458Z,103395.19
2023-02-13T21:35:45.548Z,103399.50
2023-02-13T21:37:39.978Z,103399.41
2023-02-13T21:39:56.437Z,103398.38
2023-02-13T21:41:28.876Z,103399.03
2023-02-13T21:43:01.056Z,103399.84
2023-02-13T21:44:33.843Z,103398.00
2023-02-13T21:46:11.006Z,103396.94
2023-02-13T21:47:45.017Z,103399.47
2023-02-13T21:49:18.882Z,103401.84
2023-02-13T21:50:51.111Z,103402.41
2023-02-13T21:52:24.373Z,103408.34
2023-02-13T21:53:59.802Z,103410.88
2023-02-13T21:55:36.375Z,103408.28
2023-02-13T21:57:08.591Z,103409.81
2023-02-13T21:58:42.235Z,103413.16
2023-02-13T22:00:15.931Z,103399.28
2023-02-13T22:01:50.512Z,103416.53
2023-02-13T22:03:32.388Z,103408.66
2023-02-13T22:05:10.520Z,103407.38
2023-02-13T22:07:04.722Z,103407.88
2023-02-13T22:08:40.380Z,103402.69
2023-02-13T22:10:13.030Z,103394.88
2023-02-13T22:11:45.508Z,103405.34
2023-02-13T22:13:28.937Z,103400.88
2023-02-13T22:15:05.181Z,103404.38
2023-02-13T22:16:56.628Z,103405.19
2023-02-13T22:18:36.392Z,103407.63
2023-02-13T22:20:29.696Z,103402.44
2023-02-13T22:22:20.221Z,103405.84
2023-02-13T22:24:19.869Z,103396.19
2023-02-13T22:31:49.531Z,103406.25
2023-02-13T22:33:40.463Z,103404.31
2023-02-13T22:37:13.082Z,103407.81
2023-02-13T22:38:10.097Z,103403.19
2023-02-13T22:40:35.034Z,103403.09
2023-02-13T22:42:24.604Z,103409.03
2023-02-13T22:44:07.473Z,103405.38
2023-02-13T22:45:40.238Z,103409.59
2023-02-13T22:47:14.989Z,103407.78
2023-02-13T22:48:47.988Z,103407.69
2023-02-13T22:50:20.023Z,103412.09
2023-02-13T22:51:52.271Z,103410.19
2023-02-13T22:53:24.823Z,103411.81
2023-02-13T22:54:57.339Z,103410.84
2023-02-13T22:56:30.759Z,103409.94
2023-02-13T22:58:03.121Z,103416.94
2023-02-13T22:59:40.330Z,103414.00
2023-02-13T23:01:14.642Z,103407.84
2023-02-13T23:02:49.068Z,103406.84
2023-02-13T23:04:23.174Z,103410.19
2023-02-13T23:05:57.839Z,103415.28
2023-02-13T23:07:30.126Z,103410.81
2023-02-13T23:09:02.529Z,103405.22
2023-02-13T23:10:43.036Z,103411.22
2023-02-13T23:12:51.079Z,103418.19
2023-02-13T23:14:25.232Z,103414.69
2023-02-13T23:15:59.782Z,103412.75
2023-02-13T23:17:50.785Z,103416.31
2023-02-13T23:19:23.127Z,103419.81
2023-02-13T23:20:55.538Z,103417.22
2023-02-13T23:22:28.063Z,103416.31
2023-02-13T23:24:03.119Z,103418.28
2023-02-13T23:25:37.209Z,103415.03
2023-02-13T23:27:13.194Z,103415.38
2023-02-13T23:28:45.654Z,103413.09
2023-02-13T23:30:19.343Z,103406.03
2023-02-13T23:31:51.949Z,103416.50
2023-02-13T23:33:24.470Z,103416.50
2023-02-13T23:34:57.341Z,103419.91
2023-02-13T23:36:30.600Z,103412.13
2023-02-13T23:38:02.926Z,103412.06
2023-02-13T23:39:35.362Z,103406.84
2023-02-13T23:41:08.903Z,103410.09
2023-02-13T23:42:42.040Z,103404.66
2023-02-13T23:44:17.434Z,103404.56
2023-02-13T23:45:53.265Z,103403.69
2023-02-13T23:47:35.017Z,103401.97
2023-02-13T23:49:23.399Z,103408.06
2023-02-13T23:51:04.205Z,103401.16
2023-02-13T23:52:55.577Z,103412.53
2023-02-13T23:56:27.945Z,103410.00
2023-02-13T23:56:59.357Z,103412.59
2023-02-13T23:59:07.232Z,103409.28
